Time;durP1;ratioP1;P1;durP2;ratioP2;P2;SDS_P1;SDS_P2;PMS_P1;PMS_P2;Temp;Humidity;BMP_temperature;BMP_pressure;BME280_temperature;BME280_humidity;BME280_pressure;Samples;Min_cycle;Max_cycle;Signal;HPM_P1;HPM_P2
2022/11/13 00:02:22;;;;;;;15.65;14.35;;;;;;;5.87;100.00;102890.63;5059336;28;20031;-74
2022/11/13 00:04:47;;;;;;;15.88;14.50;;;;;;;5.98;100.00;102906.75;5059902;28;20775;-74
2022/11/13 00:07:13;;;;;;;15.43;12.23;;;;;;;5.99;100.00;102911.09;5057896;28;20043;-74
2022/11/13 00:09:38;;;;;;;14.48;13.00;;;;;;;5.97;100.00;102907.69;5077061;28;20028;-74
2022/11/13 00:12:04;;;;;;;15.77;12.80;;;;;;;6.03;100.00;102901.28;5058201;28;20036;-74
2022/11/13 00:14:29;;;;;;;13.05;11.82;;;;;;;6.02;100.00;102908.31;5077735;28;20025;-74
2022/11/13 00:16:54;;;;;;;12.52;11.30;;;;;;;5.99;100.00;102905.84;5058056;28;20032;-74
2022/11/13 00:19:20;;;;;;;14.60;13.20;;;;;;;5.97;100.00;102908.53;5077144;28;20106;-74
2022/11/13 00:21:45;;;;;;;13.32;12.32;;;;;;;6.00;100.00;102912.78;5076308;28;20379;-74
2022/11/13 00:24:10;;;;;;;11.82;10.93;;;;;;;6.00;100.00;102918.00;5076282;28;20547;-74
2022/11/13 00:26:36;;;;;;;13.43;11.30;;;;;;;5.95;100.00;102912.13;5076891;28;20488;-74
2022/11/13 00:29:02;;;;;;;8.80;7.35;;;;;;;5.94;100.00;102902.53;5075430;28;20033;-74
2022/11/13 00:31:28;;;;;;;7.53;6.82;;;;;;;5.87;100.00;102896.72;5076951;28;20066;-74
2022/11/13 00:33:54;;;;;;;10.98;8.32;;;;;;;5.88;100.00;102905.41;5076485;28;20043;-74
2022/11/13 00:36:22;;;;;;;10.18;8.65;;;;;;;5.87;100.00;102903.72;5077074;28;20040;-75
2022/11/13 00:38:48;;;;;;;11.23;8.15;;;;;;;5.90;100.00;102901.84;5077470;28;20024;-74
2022/11/13 00:41:14;;;;;;;10.05;9.13;;;;;;;5.93;100.00;102899.06;5060575;28;20031;-75
2022/11/13 00:43:40;;;;;;;13.63;10.23;;;;;;;5.98;100.00;102902.34;5057443;28;20077;-75
2022/11/13 00:46:06;;;;;;;11.27;10.13;;;;;;;5.99;100.00;102905.84;5077429;28;20036;-74
2022/11/13 00:48:31;;;;;;;13.90;12.13;;;;;;;6.06;100.00;102904.63;5056643;28;20036;-74
2022/11/13 00:50:57;;;;;;;16.40;15.02;;;;;;;6.01;100.00;102893.53;5077026;28;20055;-74
2022/11/13 00:53:22;;;;;;;16.35;14.75;;;;;;;6.10;100.00;102893.09;5058621;28;20031;-74
2022/11/13 00:55:48;;;;;;;18.05;16.33;;;;;;;6.12;100.00;102890.41;5076680;28;20033;-74
2022/11/13 00:58:14;;;;;;;19.98;18.33;;;;;;;6.10;100.00;102882.59;5073583;28;20488;-75
2022/11/13 01:00:44;;;;;;;18.15;16.80;;;;;;;6.11;100.00;102876.41;5059423;28;20025;-74
2022/11/13 01:03:11;;;;;;;24.50;18.80;;;;;;;6.21;100.00;102891.75;5076597;28;20009;-74
2022/11/13 01:05:38;;;;;;;19.58;17.63;;;;;;;6.20;100.00;102882.16;5059157;28;20374;-74
2022/11/13 01:08:04;;;;;;;16.15;14.88;;;;;;;6.24;100.00;102889.81;5076085;28;20047;-75
2022/11/13 01:10:30;;;;;;;17.42;15.98;;;;;;;6.23;100.00;102892.50;5077011;28;20125;-74
2022/11/13 01:12:55;;;;;;;17.80;16.48;;;;;;;6.22;100.00;102899.53;5075203;28;20488;-74
2022/11/13 01:15:21;;;;;;;18.17;16.75;;;;;;;6.14;100.00;102871.06;5074527;28;20080;-74
2022/11/13 01:17:46;;;;;;;16.95;15.65;;;;;;;6.24;100.00;102884.56;5056692;28;20507;-74
2022/11/13 01:20:12;;;;;;;15.95;14.52;;;;;;;6.23;100.00;102882.88;5058607;28;20059;-74
2022/11/13 01:22:37;;;;;;;15.15;13.68;;;;;;;6.10;100.00;102852.94;5076861;28;20023;-74
2022/11/13 01:25:03;;;;;;;14.82;13.63;;;;;;;6.20;100.00;102875.16;5057204;28;20020;-74
2022/11/13 01:27:28;;;;;;;13.18;12.02;;;;;;;6.20;100.00;102869.06;5074901;28;20063;-74
2022/11/13 01:29:54;;;;;;;18.38;14.27;;;;;;;6.16;100.00;102882.31;5041452;28;20032;-74
2022/11/13 01:32:19;;;;;;;14.02;12.52;;;;;;;6.13;100.00;102876.38;5076385;28;20268;-74
2022/11/13 01:34:44;;;;;;;15.05;13.52;;;;;;;6.12;100.00;102867.66;5040331;28;20186;-74
2022/11/13 01:37:10;;;;;;;13.30;12.15;;;;;;;6.10;100.00;102858.16;5058693;28;20484;-74
2022/11/13 01:39:35;;;;;;;13.60;12.30;;;;;;;6.05;100.00;102857.50;5058575;28;20421;-74
2022/11/13 01:42:01;;;;;;;13.38;12.23;;;;;;;6.03;100.00;102839.25;5074467;28;20024;-74
2022/11/13 01:44:46;;;;;;;14.65;13.30;;;;;;;6.02;100.00;102842.78;5056795;28;20035;-74
2022/11/13 01:47:11;;;;;;;14.40;11.73;;;;;;;6.02;100.00;102836.69;5076380;28;20442;-74
2022/11/13 01:49:39;;;;;;;14.38;13.00;;;;;;;6.00;100.00;102839.38;5057233;28;20024;-74
2022/11/13 01:52:12;;;;;;;13.68;11.82;;;;;;;5.94;100.00;102829.13;5077907;28;20063;-74
2022/11/13 01:54:42;;;;;;;13.23;11.95;;;;;;;6.02;100.00;102836.69;5074219;28;20039;-74
2022/11/13 01:57:08;;;;;;;10.93;9.90;;;;;;;6.04;100.00;102819.13;5076443;28;20031;-75
2022/11/13 01:59:39;;;;;;;11.52;10.43;;;;;;;6.01;100.00;102809.63;5075290;28;20312;-74
2022/11/13 02:02:04;;;;;;;12.40;11.17;;;;;;;6.04;100.00;102809.47;5076409;28;20381;-74
2022/11/13 02:04:31;;;;;;;10.93;8.35;;;;;;;6.03;100.00;102807.81;5074716;28;20397;-73
2022/11/13 02:07:00;;;;;;;10.85;9.82;;;;;;;5.99;100.00;102808.88;5075717;28;20031;-73
2022/11/13 02:09:28;;;;;;;13.27;10.55;;;;;;;5.87;100.00;102793.66;5075581;28;20476;-73
2022/11/13 02:11:54;;;;;;;9.73;8.77;;;;;;;5.97;100.00;102808.09;5074192;28;20354;-73
2022/11/13 02:14:21;;;;;;;10.65;9.63;;;;;;;5.91;100.00;102789.97;5073947;28;20150;-73
2022/11/13 02:16:49;;;;;;;12.30;10.85;;;;;;;5.96;100.00;102796.72;5076079;28;20384;-73
2022/11/13 02:19:32;;;;;;;11.75;8.57;;;;;;;6.01;100.00;102808.75;5074400;28;20029;-73
2022/11/13 02:22:18;;;;;;;16.77;9.52;;;;;;;6.00;100.00;102801.84;5055112;28;20583;-73
2022/11/13 02:24:45;;;;;;;9.90;8.93;;;;;;;6.00;100.00;102800.06;5072372;28;20496;-73
2022/11/13 02:27:33;;;;;;;10.80;9.60;;;;;;;5.98;100.00;102804.53;5057506;28;20082;-73
2022/11/13 02:30:09;;;;;;;11.30;9.50;;;;;;;5.97;100.00;102805.47;5054041;28;20040;-74
2022/11/13 02:32:34;;;;;;;11.25;9.30;;;;;;;5.98;100.00;102799.28;5070056;28;20629;-73
2022/11/13 02:34:59;;;;;;;8.40;7.65;;;;;;;5.96;100.00;102794.09;5056961;28;20052;-73
2022/11/13 02:37:25;;;;;;;11.48;10.57;;;;;;;5.93;100.00;102788.97;5075633;28;20115;-73
2022/11/13 02:39:50;;;;;;;13.85;9.55;;;;;;;6.01;100.00;102796.53;5056835;28;20083;-74
2022/11/13 02:42:15;;;;;;;10.07;9.27;;;;;;;5.87;100.00;102760.44;5055917;28;20072;-74
2022/11/13 02:44:41;;;;;;;10.05;8.70;;;;;;;6.08;100.00;102795.31;5056781;28;20032;-74
2022/11/13 02:47:06;;;;;;;9.30;8.40;;;;;;;5.97;100.00;102774.00;5057153;28;20028;-74
2022/11/13 02:49:31;;;;;;;13.30;8.60;;;;;;;6.13;100.00;102789.84;5024610;28;20033;-74
2022/11/13 02:51:57;;;;;;;9.20;8.50;;;;;;;6.17;100.00;102789.63;5076373;28;20031;-74
2022/11/13 02:54:22;;;;;;;11.90;7.85;;;;;;;6.08;100.00;102774.34;5072538;28;20095;-74
2022/11/13 02:56:47;;;;;;;8.00;7.10;;;;;;;6.13;100.00;102774.97;5056892;28;20473;-74
2022/11/13 02:59:13;;;;;;;9.43;6.72;;;;;;;6.13;100.00;102769.72;5057166;28;20065;-73
2022/11/13 03:01:38;;;;;;;6.00;5.40;;;;;;;6.26;100.00;102790.94;5055018;28;20031;-73
2022/11/13 03:04:04;;;;;;;8.10;7.03;;;;;;;6.22;100.00;102785.94;5053801;28;20040;-73
2022/11/13 03:06:29;;;;;;;6.60;5.97;;;;;;;6.29;100.00;102795.19;5057391;28;20028;-73
2022/11/13 03:08:54;;;;;;;6.15;4.78;;;;;;;6.31;100.00;102795.97;5061240;28;20042;-73
2022/11/13 03:11:20;;;;;;;8.05;5.85;;;;;;;6.28;100.00;102798.75;5060427;28;20174;-73
2022/11/13 03:13:45;;;;;;;5.63;5.07;;;;;;;6.21;100.00;102790.34;5077283;28;20061;-73
2022/11/13 03:16:13;;;;;;;6.47;5.35;;;;;;;6.04;100.00;102775.41;5060601;28;20421;-73
2022/11/13 03:18:39;;;;;;;11.45;4.35;;;;;;;6.02;100.00;102764.16;5061722;28;20070;-73
2022/11/13 03:21:10;;;;;;;5.40;4.90;;;;;;;6.14;100.00;102781.91;5077936;28;20052;-74
2022/11/13 03:23:35;;;;;;;;;;;;;;;6.17;100.00;102779.13;5077049;28;20040;-74
2022/11/13 03:26:04;;;;;;;5.72;4.50;;;;;;;6.01;100.00;102762.47;5061182;28;19934;-74
2022/11/13 03:28:29;;;;;;;7.15;5.30;;;;;;;6.14;100.00;102776.69;5061030;28;20422;-74
2022/11/13 03:30:54;;;;;;;7.68;5.95;;;;;;;6.13;100.00;102767.09;5061095;28;20032;-74
2022/11/13 03:33:20;;;;;;;10.10;6.70;;;;;;;6.07;100.00;102761.31;5076499;28;20032;-74
2022/11/13 03:35:46;;;;;;;6.03;5.45;;;;;;;6.14;100.00;102771.44;5058046;28;20064;-74
2022/11/13 03:38:12;;;;;;;8.23;5.03;;;;;;;6.06;100.00;102749.97;5078422;28;20059;-74
2022/11/13 03:40:37;;;;;;;9.85;6.57;;;;;;;6.19;100.00;102773.81;5059856;28;20069;-74
2022/11/13 03:43:02;;;;;;;8.82;7.93;;;;;;;6.23;100.00;102777.13;5035299;28;20036;-74
2022/11/13 03:45:28;;;;;;;15.60;8.00;;;;;;;6.24;100.00;102776.22;5069989;28;20044;-73
2022/11/13 03:47:53;;;;;;;7.57;6.13;;;;;;;6.27;100.00;102769.06;5056262;28;20036;-73
2022/11/13 03:50:18;;;;;;;13.88;9.45;;;;;;;6.28;100.00;102762.03;5079158;28;20106;-73
2022/11/13 03:52:44;;;;;;;12.23;8.85;;;;;;;6.26;100.00;102761.28;5077184;28;20063;-73
2022/11/13 03:55:09;;;;;;;9.00;8.15;;;;;;;6.09;100.00;102744.56;5076544;28;20052;-73
2022/11/13 03:57:35;;;;;;;8.95;8.15;;;;;;;6.28;100.00;102769.91;5059270;28;20090;-73
2022/11/13 04:00:00;;;;;;;10.57;9.18;;;;;;;6.29;100.00;102766.34;5076997;28;20033;-73
2022/11/13 04:02:25;;;;;;;8.98;8.07;;;;;;;6.31;100.00;102767.13;5071706;28;20074;-73
2022/11/13 04:04:51;;;;;;;9.10;8.00;;;;;;;6.23;100.00;102756.16;5077128;28;20053;-73
2022/11/13 04:07:16;;;;;;;6.55;5.70;;;;;;;6.36;100.00;102778.25;5056944;28;20038;-73
2022/11/13 04:09:41;;;;;;;8.15;7.45;;;;;;;6.33;100.00;102767.91;5078998;28;20115;-73
2022/11/13 04:12:07;;;;;;;10.85;9.82;;;;;;;6.31;100.00;102762.72;5075898;28;20488;-73
2022/11/13 04:14:32;;;;;;;9.10;8.15;;;;;;;6.15;100.00;102739.03;5044159;28;20060;-73
2022/11/13 04:16:57;;;;;;;8.23;7.13;;;;;;;6.20;100.00;102744.06;5040693;28;20063;-74
2022/11/13 04:19:23;;;;;;;7.03;6.32;;;;;;;6.30;100.00;102760.19;5043161;28;20107;-74
2022/11/13 04:21:48;;;;;;;7.70;6.68;;;;;;;6.33;100.00;102760.03;5059863;28;20035;-74
2022/11/13 04:24:13;;;;;;;5.25;4.28;;;;;;;6.23;100.00;102735.19;5077551;28;20032;-74
2022/11/13 04:26:39;;;;;;;9.63;8.68;;;;;;;6.34;100.00;102759.13;5056151;28;20036;-74
2022/11/13 04:29:04;;;;;;;6.55;4.78;;;;;;;6.31;100.00;102741.75;5075158;28;20476;-74
2022/11/13 04:31:29;;;;;;;6.85;6.13;;;;;;;6.31;100.00;102741.75;5077074;28;20036;-74
2022/11/13 04:33:55;;;;;;;5.90;5.32;;;;;;;6.29;100.00;102740.13;5060176;28;20024;-74
2022/11/13 04:36:20;;;;;;;7.55;5.68;;;;;;;6.26;100.00;102737.66;5074956;28;20169;-74
2022/11/13 04:38:45;;;;;;;8.65;7.22;;;;;;;6.11;100.00;102724.38;5077892;28;20123;-74
2022/11/13 04:43:56;;;;;;;9.25;7.55;;;;;;;6.04;100.00;102715.13;5077139;28;20451;-74
2022/11/13 04:46:21;;;;;;;13.65;10.75;;;;;;;6.18;100.00;102741.53;5054637;28;20036;-74
2022/11/13 04:48:46;;;;;;;10.02;8.35;;;;;;;6.14;100.00;102736.47;5077436;28;20583;-74
2022/11/13 04:51:12;;;;;;;9.32;8.43;;;;;;;6.08;100.00;102728.94;5075842;28;20515;-74
2022/11/13 04:53:37;;;;;;;9.60;8.02;;;;;;;5.95;100.00;102721.66;5057735;28;20485;-74
2022/11/13 04:56:03;;;;;;;9.80;7.50;;;;;;;6.05;100.00;102736.94;5057962;28;20042;-74
2022/11/13 04:58:28;;;;;;;19.83;9.57;;;;;;;5.90;100.00;102713.16;5059071;28;20063;-74
2022/11/13 05:00:54;;;;;;;11.35;7.65;;;;;;;6.02;100.00;102737.94;5056984;28;20176;-74
2022/11/13 05:03:19;;;;;;;16.02;7.93;;;;;;;6.01;100.00;102736.25;5075986;28;20028;-74
2022/11/13 05:05:44;;;;;;;7.22;6.47;;;;;;;5.99;100.00;102735.47;5056994;28;20136;-74
2022/11/13 05:08:11;;;;;;;12.15;7.53;;;;;;;5.90;100.00;102718.38;5056078;28;20036;-74
2022/11/13 05:10:37;;;;;;;8.32;7.63;;;;;;;5.82;100.00;102715.28;5057039;28;20030;-74
2022/11/13 05:13:02;;;;;;;9.73;7.60;;;;;;;5.94;100.00;102732.16;5056536;28;20032;-74
2022/11/13 05:15:27;;;;;;;11.02;9.32;;;;;;;5.95;100.00;102733.91;5041749;28;20465;-74
2022/11/13 05:17:53;;;;;;;12.98;9.55;;;;;;;5.95;100.00;102742.63;5056757;28;20043;-74
2022/11/13 05:20:18;;;;;;;6.90;6.25;;;;;;;5.91;100.00;102729.72;5075822;28;20024;-74
2022/11/13 05:22:44;;;;;;;9.70;7.53;;;;;;;5.98;100.00;102731.13;5075292;28;20695;-74
2022/11/13 05:25:09;;;;;;;6.82;6.32;;;;;;;6.01;100.00;102732.75;5055749;28;20032;-74
2022/11/13 05:27:34;;;;;;;11.88;6.88;;;;;;;5.89;100.00;102718.44;5076759;28;20419;-74
2022/11/13 05:30:00;;;;;;;9.63;7.18;;;;;;;5.93;100.00;102733.94;5074507;28;20475;-74
2022/11/13 05:32:25;;;;;;;9.95;6.43;;;;;;;5.94;100.00;102729.56;5074678;28;20559;-74
2022/11/13 05:34:50;;;;;;;8.60;5.75;;;;;;;5.92;100.00;102734.88;5055649;28;20484;-74
2022/11/13 05:37:16;;;;;;;6.18;5.55;;;;;;;5.85;100.00;102722.13;5055765;28;20059;-74
2022/11/13 05:39:41;;;;;;;7.50;5.18;;;;;;;5.91;100.00;102734.94;5040187;28;20024;-74
2022/11/13 05:42:07;;;;;;;8.70;5.82;;;;;;;5.87;100.00;102728.16;5073548;28;20032;-74
2022/11/13 05:44:32;;;;;;;8.93;6.32;;;;;;;5.85;100.00;102717.75;5074852;28;20127;-74
2022/11/13 05:46:57;;;;;;;8.70;6.40;;;;;;;5.80;100.00;102711.03;5071099;28;20089;-74
2022/11/13 05:49:23;;;;;;;5.63;5.18;;;;;;;5.75;100.00;102709.47;5074383;28;20028;-74
2022/11/13 05:51:48;;;;;;;6.68;5.60;;;;;;;5.74;100.00;102705.16;5055955;28;20028;-74
2022/11/13 05:54:13;;;;;;;7.47;5.95;;;;;;;5.65;100.00;102691.66;5057012;28;20563;-74
2022/11/13 05:56:39;;;;;;;10.27;6.15;;;;;;;5.69;100.00;102693.22;5055802;28;20403;-74
2022/11/13 05:59:05;;;;;;;10.20;5.97;;;;;;;5.66;100.00;102694.22;5073417;28;20063;-74
2022/11/13 06:01:33;;;;;;;8.10;7.20;;;;;;;5.63;100.00;102688.25;5071474;28;20028;-74
2022/11/13 06:04:00;;;;;;;6.68;5.78;;;;;;;5.59;100.00;102687.53;5050058;28;20028;-74
2022/11/13 06:06:27;;;;;;;8.40;7.07;;;;;;;5.55;100.00;102685.97;5073203;28;20135;-74
2022/11/13 06:08:54;;;;;;;9.45;6.40;;;;;;;5.48;100.00;102676.72;5053843;28;20040;-73
2022/11/13 06:11:27;;;;;;;7.03;6.32;;;;;;;5.38;100.00;102664.97;5038897;28;20040;-74
2022/11/13 06:13:54;;;;;;;7.80;6.18;;;;;;;5.48;100.00;102681.97;5070001;28;20570;-74
2022/11/13 06:16:27;;;;;;;6.85;6.25;;;;;;;5.48;100.00;102674.09;5070254;28;20115;-74
2022/11/13 06:18:57;;;;;;;7.72;6.97;;;;;;;5.47;100.00;102677.66;5070550;28;20032;-74
2022/11/13 06:21:25;;;;;;;8.73;7.72;;;;;;;5.39;100.00;102656.22;5073153;28;20028;-74
2022/11/13 06:23:51;;;;;;;7.13;6.40;;;;;;;5.45;100.00;102663.78;5072703;28;20475;-74
2022/11/13 06:26:20;;;;;;;6.85;6.15;;;;;;;5.38;100.00;102662.34;5055539;28;20039;-74
2022/11/13 06:28:45;;;;;;;7.65;6.60;;;;;;;5.37;100.00;102666.75;5069779;28;20495;-74
2022/11/13 06:31:17;;;;;;;6.32;5.82;;;;;;;5.30;100.00;102662.72;5050816;28;20029;-74
2022/11/13 06:33:43;;;;;;;10.18;6.55;;;;;;;5.35;100.00;102664.19;5068261;28;20277;-74
2022/11/13 06:36:21;;;;;;;6.15;5.60;;;;;;;5.37;100.00;102677.22;5067999;28;20089;-74
2022/11/13 06:38:47;;;;;;;8.45;7.20;;;;;;;5.32;100.00;102673.97;5074307;28;20036;-74
2022/11/13 06:41:15;;;;;;;6.20;5.70;;;;;;;5.32;100.00;102666.97;5074796;28;20356;-74
2022/11/13 06:43:41;;;;;;;7.05;5.82;;;;;;;5.29;100.00;102667.13;5076085;28;20084;-74
2022/11/13 06:46:12;;;;;;;8.52;5.97;;;;;;;5.27;100.00;102670.69;5075379;28;20484;-74
2022/11/13 06:48:37;;;;;;;6.13;5.35;;;;;;;5.17;100.00;102658.97;5078003;28;20077;-74
2022/11/13 06:51:05;;;;;;;8.50;6.72;;;;;;;5.25;100.00;102678.66;5057966;28;20040;-73
2022/11/13 06:53:31;;;;;;;6.18;5.53;;;;;;;5.15;100.00;102666.88;5055415;28;20033;-73
2022/11/13 06:55:57;;;;;;;9.98;7.13;;;;;;;5.17;100.00;102675.53;5071479;28;20086;-73
2022/11/13 06:58:22;;;;;;;7.65;6.57;;;;;;;5.12;100.00;102677.50;5070601;28;20080;-73
2022/11/13 07:00:48;;;;;;;6.63;5.80;;;;;;;5.07;100.00;102676.84;5073418;28;20079;-73
2022/11/13 07:03:20;;;;;;;7.38;6.68;;;;;;;5.09;100.00;102677.63;5076253;28;20028;-73
2022/11/13 07:05:46;;;;;;;8.85;7.88;;;;;;;5.09;100.00;102672.41;5057405;28;20047;-73
2022/11/13 07:08:12;;;;;;;7.75;7.07;;;;;;;5.04;100.00;102669.16;5075868;28;20021;-73
2022/11/13 07:10:38;;;;;;;7.80;7.05;;;;;;;5.04;100.00;102671.75;5056251;28;20032;-73
2022/11/13 07:13:04;;;;;;;8.20;7.47;;;;;;;4.91;100.00;102659.22;5058845;28;20534;-73
2022/11/13 07:15:36;;;;;;;9.85;8.85;;;;;;;5.03;100.00;102680.53;5059732;28;20032;-73
2022/11/13 07:18:03;;;;;;;8.02;7.32;;;;;;;5.02;100.00;102671.81;5057283;28;20028;-74
2022/11/13 07:20:29;;;;;;;9.80;8.63;;;;;;;5.00;100.00;102672.81;5075440;28;20110;-74
2022/11/13 07:22:58;;;;;;;10.30;9.40;;;;;;;5.11;100.00;102681.03;5052499;28;20044;-74
2022/11/13 07:25:25;;;;;;;9.35;8.57;;;;;;;5.06;100.00;102678.63;5059459;28;20020;-74
2022/11/13 07:27:50;;;;;;;12.70;11.50;;;;;;;5.06;100.00;102675.16;5056969;28;20089;-74
2022/11/13 07:30:16;;;;;;;11.93;10.82;;;;;;;5.00;100.00;102662.34;5077293;28;20422;-74
2022/11/13 07:32:42;;;;;;;11.82;10.93;;;;;;;5.13;100.00;102679.19;5054243;28;20081;-73
2022/11/13 07:35:08;;;;;;;15.63;10.85;;;;;;;5.20;100.00;102683.22;5077673;28;20032;-73
2022/11/13 07:37:33;;;;;;;8.27;7.70;;;;;;;5.12;100.00;102661.81;5075827;28;20472;-73
2022/11/13 07:39:58;;;;;;;10.00;8.52;;;;;;;5.12;100.00;102660.03;5057581;28;20115;-73
2022/11/13 07:42:24;;;;;;;9.27;6.95;;;;;;;5.27;100.00;102673.31;5074428;28;20040;-73
2022/11/13 07:44:49;;;;;;;10.50;8.02;;;;;;;5.32;100.00;102666.13;5075454;28;20124;-74
2022/11/13 07:47:14;;;;;;;10.18;9.27;;;;;;;5.60;100.00;102657.81;5056764;28;20031;-74
2022/11/13 07:49:40;;;;;;;14.13;12.82;;;;;;;5.81;100.00;102670.78;5055042;28;20032;-74
2022/11/13 07:52:05;;;;;;;15.60;9.60;;;;;;;6.01;100.00;102675.97;5058363;28;20078;-74
2022/11/13 07:54:31;;;;;;;10.20;6.95;;;;;;;6.27;100.00;102658.94;5074322;28;20028;-74
2022/11/13 07:56:56;;;;;;;6.07;5.32;;;;;;;6.26;100.00;102646.72;5071507;28;20036;-74
2022/11/13 07:59:21;;;;;;;6.55;5.13;;;;;;;6.53;100.00;102649.72;5076102;28;20035;-74
2022/11/13 08:01:47;;;;;;;8.32;4.97;;;;;;;6.79;100.00;102644.88;5072903;28;20499;-74
2022/11/13 08:04:12;;;;;;;7.13;5.22;;;;;;;6.90;100.00;102645.19;5073701;28;20867;-74
2022/11/13 08:06:38;;;;;;;5.07;4.57;;;;;;;6.77;100.00;102641.47;5055963;28;20082;-74
2022/11/13 08:09:03;;;;;;;9.25;5.10;;;;;;;6.79;100.00;102635.25;5074390;28;20088;-74
2022/11/13 08:11:28;;;;;;;5.75;4.82;;;;;;;6.68;100.00;102636.72;5074502;28;20472;-74
2022/11/13 08:13:54;;;;;;;7.20;5.40;;;;;;;6.49;100.00;102623.72;5055698;28;20040;-74
2022/11/13 08:16:19;;;;;;;6.72;3.80;;;;;;;6.45;100.00;102635.31;5041277;28;20043;-74
2022/11/13 08:18:44;;;;;;;8.20;4.45;;;;;;;6.45;100.00;102633.53;5054847;28;20033;-74
2022/11/13 08:21:10;;;;;;;8.70;4.40;;;;;;;6.56;100.00;102630.34;5055471;28;20024;-74
2022/11/13 08:23:35;;;;;;;12.50;4.45;;;;;;;6.82;100.00;102634.22;5074922;28;20021;-74
2022/11/13 08:26:04;;;;;;;5.00;3.58;;;;;;;6.68;100.00;102631.47;5074470;28;20032;-74
2022/11/13 08:28:30;;;;;;;8.32;5.10;;;;;;;6.56;100.00;102623.31;5056236;28;20036;-74
2022/11/13 08:30:55;;;;;;;6.90;4.82;;;;;;;6.72;100.00;102625.16;5076206;28;20043;-73
2022/11/13 08:33:21;;;;;;;7.03;5.07;;;;;;;6.84;100.00;102627.13;5075081;28;20041;-74
2022/11/13 08:35:57;;;;;;;12.15;5.72;;;;;;;7.30;100.00;102629.03;5074185;28;20052;-74
2022/11/13 08:38:23;;;;;;;5.53;3.80;;;;;;;7.92;100.00;102621.97;5071629;28;20460;-74
2022/11/13 08:40:49;;;;;;;5.90;4.72;;;;;;;8.53;100.00;102622.78;5070134;28;20056;-74
2022/11/13 08:43:15;;;;;;;8.00;5.40;;;;;;;8.21;100.00;102615.03;5048677;28;20507;-74
2022/11/13 08:45:40;;;;;;;7.85;4.65;;;;;;;8.99;100.00;102627.88;5037823;28;20033;-74
2022/11/13 08:48:06;;;;;;;8.27;4.90;;;;;;;10.15;100.00;102610.66;5075102;28;20032;-74
2022/11/13 08:50:32;;;;;;;9.27;5.32;;;;;;;11.44;100.00;102612.16;5072608;28;20429;-74
2022/11/13 08:52:59;;;;;;;5.22;4.28;;;;;;;11.70;92.68;102604.13;5051651;28;20041;-74
2022/11/13 08:55:26;;;;;;;9.57;4.95;;;;;;;12.96;88.63;102602.38;5068788;28;20042;-75
2022/11/13 08:57:51;;;;;;;7.47;4.63;;;;;;;12.96;82.92;102586.50;5072355;28;20024;-75
2022/11/13 09:00:18;;;;;;;7.38;5.03;;;;;;;14.62;80.41;102588.59;5070440;28;20044;-75
2022/11/13 09:02:44;;;;;;;5.05;3.97;;;;;;;16.35;76.75;102590.63;5067345;28;20046;-75
2022/11/13 09:05:09;;;;;;;5.00;3.97;;;;;;;17.88;71.99;102577.44;5068840;28;20552;-75
2022/11/13 09:07:35;;;;;;;5.97;4.18;;;;;;;18.37;62.78;102570.72;5052059;28;20035;-75
2022/11/13 09:10:00;;;;;;;5.60;4.28;;;;;;;18.88;64.03;102577.81;5071310;28;20028;-75
2022/11/13 09:12:26;;;;;;;5.68;3.65;;;;;;;19.86;59.17;102581.59;5054877;28;20111;-75
2022/11/13 09:14:51;;;;;;;6.47;4.45;;;;;;;20.58;56.10;102557.47;5035799;28;20054;-74
2022/11/13 09:17:17;;;;;;;6.03;4.13;;;;;;;20.08;53.85;102564.81;5052298;28;20110;-74
2022/11/13 09:19:42;;;;;;;6.38;4.82;;;;;;;20.04;57.23;102568.84;5065066;28;20027;-74
2022/11/13 09:22:08;;;;;;;4.95;4.03;;;;;;;19.26;56.21;102575.53;5069411;28;20127;-74
2022/11/13 09:24:33;;;;;;;5.95;4.18;;;;;;;20.48;55.36;102581.78;5070638;28;20032;-74
2022/11/13 09:26:59;;;;;;;4.53;3.92;;;;;;;20.08;57.63;102567.50;5072938;28;20040;-74
2022/11/13 09:29:27;;;;;;;6.43;4.35;;;;;;;19.32;54.86;102550.78;5070032;28;20078;-74
2022/11/13 09:31:53;;;;;;;7.55;4.75;;;;;;;19.39;55.45;102566.19;5039706;28;20024;-74
2022/11/13 09:34:18;;;;;;;6.03;4.70;;;;;;;19.13;55.99;102564.47;5072759;28;20089;-74
2022/11/13 09:36:44;;;;;;;7.50;4.45;;;;;;;18.47;56.49;102569.59;5069784;28;20033;-74
2022/11/13 09:39:09;;;;;;;7.10;3.97;;;;;;;18.94;58.16;102565.59;5073175;28;20055;-74
2022/11/13 09:41:50;;;;;;;4.97;3.80;;;;;;;19.74;57.45;102562.34;5071532;28;20028;-75
2022/11/13 09:44:42;;;;;;;5.40;4.30;;;;;;;23.37;52.28;102568.94;5076497;28;20020;-74
2022/11/13 09:47:21;;;;;;;7.72;4.05;;;;;;;25.20;46.48;102566.00;5066658;28;20050;-74
2022/11/13 09:49:53;;;;;;;7.97;4.22;;;;;;;26.13;44.49;102563.28;5066767;28;22029;-75
2022/11/13 09:52:39;;;;;;;5.95;4.43;;;;;;;26.03;42.54;102563.69;5065209;28;20491;-74
2022/11/13 09:55:09;;;;;;;6.50;3.78;;;;;;;24.37;46.53;102574.22;5072852;28;20468;-75
2022/11/13 09:57:52;;;;;;;4.60;3.95;;;;;;;23.66;45.97;102561.69;5070547;28;20044;-74
2022/11/13 10:00:20;;;;;;;5.82;4.00;;;;;;;21.36;49.63;102569.03;5072648;28;20029;-74
2022/11/13 10:02:57;;;;;;;6.38;4.07;;;;;;;23.86;50.31;102545.69;5074468;28;20523;-75
2022/11/13 10:05:28;;;;;;;5.03;3.65;;;;;;;26.40;45.04;102564.00;5074232;28;20044;-75
2022/11/13 10:08:03;;;;;;;6.63;3.58;;;;;;;26.73;42.89;102556.81;5056535;28;20059;-75
2022/11/13 10:10:37;;;;;;;4.50;3.95;;;;;;;26.02;44.34;102561.19;5072468;28;20060;-75
2022/11/13 10:13:04;;;;;;;6.53;5.10;;;;;;;25.14;41.24;102562.22;5073629;28;20127;-75
2022/11/13 10:15:30;;;;;;;7.07;4.72;;;;;;;25.35;43.36;102555.84;5074252;28;20093;-75
2022/11/13 10:18:02;;;;;;;6.35;4.30;;;;;;;24.64;42.41;102562.50;5063196;28;20384;-75
2022/11/13 10:20:36;;;;;;;5.20;4.50;;;;;;;21.41;47.81;102549.72;5080018;28;20468;-75
2022/11/13 10:23:20;;;;;;;6.20;4.03;;;;;;;22.16;49.91;102549.66;5080638;28;20024;-75
2022/11/13 10:25:47;;;;;;;6.88;4.72;;;;;;;22.99;47.12;102544.94;5079090;28;20027;-75
2022/11/13 10:28:24;;;;;;;5.70;3.65;;;;;;;24.10;46.42;102535.47;5079791;28;20032;-75
2022/11/13 10:30:49;;;;;;;5.55;3.63;;;;;;;23.86;46.09;102543.00;5063223;28;20020;-75
2022/11/13 10:33:20;;;;;;;5.10;3.60;;;;;;;21.22;50.67;102546.50;5079701;28;20258;-75
2022/11/13 10:35:55;;;;;;;4.72;4.13;;;;;;;20.52;50.67;102537.50;5061671;28;20027;-75
2022/11/13 10:38:43;;;;;;;7.00;4.50;;;;;;;17.88;56.25;102532.03;5078532;28;20040;-75
2022/11/13 10:41:17;;;;;;;5.18;3.85;;;;;;;17.31;60.06;102534.25;5077050;28;20024;-75
2022/11/13 10:43:53;;;;;;;6.10;4.28;;;;;;;16.08;66.17;102522.16;5074958;28;20403;-75
2022/11/13 10:46:23;;;;;;;5.28;3.95;;;;;;;15.70;65.91;102517.72;5076554;28;20521;-75
2022/11/13 10:48:49;;;;;;;6.20;4.57;;;;;;;15.74;68.45;102504.03;5081134;28;20418;-75
2022/11/13 10:51:23;;;;;;;6.25;4.43;;;;;;;15.80;66.28;102511.44;5078470;28;20110;-74
2022/11/13 10:53:49;;;;;;;4.88;3.42;;;;;;;16.08;67.04;102506.16;5080382;28;20038;-74
2022/11/13 10:56:29;;;;;;;5.43;4.35;;;;;;;16.75;64.72;102490.81;5060528;28;20032;-74
2022/11/13 10:59:09;;;;;;;6.32;4.45;;;;;;;14.86;68.05;102505.84;5076153;28;20032;-74
2022/11/13 11:01:35;;;;;;;5.25;3.60;;;;;;;14.05;70.44;102503.19;5071595;28;20446;-74
2022/11/13 11:04:05;;;;;;;6.72;4.32;;;;;;;14.04;72.10;102493.53;5079061;28;20081;-74
2022/11/13 11:06:36;;;;;;;4.73;3.93;;;;;;;14.81;71.35;102482.34;5080226;28;20553;-74
2022/11/13 11:09:07;;;;;;;6.07;4.28;;;;;;;15.17;69.36;102490.59;5080851;28;20059;-75
2022/11/13 11:14:25;;;;;;;6.28;3.88;;;;;;;15.11;67.56;102493.84;5079998;28;20506;-74
2022/11/13 11:16:52;;;;;;;7.63;3.97;;;;;;;14.48;70.60;102490.63;5080237;28;20552;-74
2022/11/13 11:19:21;;;;;;;4.50;3.80;;;;;;;14.48;70.58;102490.63;5078114;28;20332;-74
2022/11/13 11:21:51;;;;;;;5.20;3.60;;;;;;;13.93;71.39;102470.56;5078837;28;20024;-74
2022/11/13 11:24:25;;;;;;;5.25;3.95;;;;;;;13.28;73.27;102480.50;5080286;28;20077;-74
2022/11/13 11:27:03;;;;;;;5.88;4.32;;;;;;;13.56;74.47;102479.00;5061059;28;20400;-74
2022/11/13 11:29:31;;;;;;;4.70;3.55;;;;;;;14.60;72.11;102463.84;5074202;28;20038;-74